Terminal Aerodrome Forecast
Issued by NWS Wilmington, OH

Home | Current Version | Previous Version | Text Only | Print | Product List | Glossary On
Versions: 1 2 3 4 5 6 7 8 9 10 11 12 13 14 15 16 17 18 19 20 21 22 23 24 25 26 27 28 29 30
000
FTUS41 KILN 050151 AAA
TAFCVG
TAF AMD
KCVG 050151Z 0502/0606 33011KT P6SM SCT040 OVC060
     FM050400 33011KT P6SM OVC015
     FM050800 34008KT P6SM OVC006
     FM051300 35010KT P6SM BKN025
     FM052100 35015G24KT P6SM BKN040
     FM060100 36009KT P6SM SCT045=

USA.gov is the U.S. government's official web portal to all federal, state and local government web resources and services.